Flight Track Log - Related Links

Times and Time Zones

All times are in EST time to prevent confusion due to time zone crossing. See the EJA142 flight status page for this flight to view local times or setup timezone preferences in your user account.

Time Position Orientation Groundspeed Altitude Reporting Facility
EST Latitude Longitude Course Direction KTS MPH feet Rate Location/Type
Mon 06:35:00 60.2545 -21.3992 306° West  Level FlightAware Approximate
Mon 06:36:00 60.3083 -21.6188 296° West  Level FlightAware Approximate
Mon 06:37:00 60.3618 -21.8391 296° West  Level FlightAware Approximate
Mon 06:38:00 60.4149 -22.0600 296° West  Level FlightAware Approximate
Mon 06:39:00 60.4676 -22.2818 296° West  Level FlightAware Approximate
Mon 06:40:00 60.5200 -22.5042 296° West  Level FlightAware Approximate
Mon 06:41:00 60.5720 -22.7273 295° West  Level FlightAware Approximate
Mon 06:42:00 60.6236 -22.9512 295° West  Level FlightAware Approximate
Mon 06:43:00 60.6749 -23.1758 295° West  Level FlightAware Approximate
Mon 06:44:00 60.7258 -23.4011 295° West  Level FlightAware Approximate
Mon 06:45:00 60.7763 -23.6271 295° West  Level FlightAware Approximate
Mon 06:46:00 60.8264 -23.8538 294° West  Level FlightAware Approximate
Mon 06:47:00 60.8762 -24.0812 294° West  Level FlightAware Approximate
Mon 06:48:00 60.9255 -24.3094 294° West  Level FlightAware Approximate
Mon 06:49:00 60.9745 -24.5382 294° West  Level FlightAware Approximate
Mon 06:50:00 61.0231 -24.7678 294° West  Level FlightAware Approximate
Mon 06:51:00 61.0715 -24.9978 294° West  Level FlightAware Approximate
Mon 06:52:00 61.1197 -25.2284 293° West  Level FlightAware Approximate
Mon 06:53:00 61.1674 -25.4597 293° West  Level FlightAware Approximate
Mon 06:54:00 61.2148 -25.6917 293° West  Level FlightAware Approximate
Mon 06:55:00 61.2618 -25.9245 293° West  Level FlightAware Approximate
Mon 06:56:00 61.3083 -26.1579 293° West  Level FlightAware Approximate
Mon 06:57:00 61.3545 -26.3920 292° West  Level FlightAware Approximate
Mon 06:58:00 61.4003 -26.6268 292° West  Level FlightAware Approximate
Mon 06:59:00 61.4456 -26.8623 292° West  Level FlightAware Approximate
Mon 07:00:00 61.4906 -27.0984 292° West  Level FlightAware Approximate
Mon 07:01:00 61.5351 -27.3353 292° West  Level FlightAware Approximate
Mon 07:02:00 61.5793 -27.5728 291° West  Level FlightAware Approximate
Mon 07:03:00 61.6230 -27.8110 291° West  Level FlightAware Approximate
Mon 07:04:00 61.6663 -28.0499 291° West  Level FlightAware Approximate
Mon 07:05:00 61.7091 -28.2894 291° West  Level FlightAware Approximate
Mon 07:06:00 61.7516 -28.5296 291° West  Level FlightAware Approximate
Mon 07:07:00 61.7937 -28.7705 290° West  Level FlightAware Approximate
Mon 07:08:00 61.8353 -29.0120 290° West  Level FlightAware Approximate
Mon 07:09:00 61.8765 -29.2542 290° West  Level FlightAware Approximate
Mon 07:10:00 61.9172 -29.4970 290° West  Level FlightAware Approximate
Mon 07:11:00 61.9576 -29.7404 290° West  Level FlightAware Approximate
Mon 07:12:00 61.9975 -29.9845 289° West  Level FlightAware Approximate
Mon 07:13:00 62.0085 -30.2416 274° West  Level FlightAware Approximate
Mon 07:14:00 62.0172 -30.4998 274° West  Level FlightAware Approximate
Mon 07:15:00 62.0254 -30.7580 274° West  Level FlightAware Approximate
Mon 07:16:00 62.0331 -31.0164 274° West  Level FlightAware Approximate
Mon 07:17:00 62.0403 -31.2749 274° West  Level FlightAware Approximate
Mon 07:18:00 62.0470 -31.5335 273° West  Level FlightAware Approximate
Mon 07:19:00 62.0533 -31.7922 273° West  Level FlightAware Approximate
Mon 07:20:00 62.0590 -32.0511 273° West  Level FlightAware Approximate
Mon 07:21:00 62.0643 -32.3100 273° West  Level FlightAware Approximate
Mon 07:22:00 62.0691 -32.5690 272° West  Level FlightAware Approximate
Mon 07:23:00 62.0734 -32.8281 272° West  Level FlightAware Approximate
Mon 07:24:00 62.0772 -33.0873 272° West  Level FlightAware Approximate
Mon 07:25:00 62.0806 -33.3465 272° West  Level FlightAware Approximate
Mon 07:26:00 62.0834 -33.6058 271° West  Level FlightAware Approximate
Mon 07:27:00 62.0858 -33.8651 271° West  Level FlightAware Approximate
Mon 07:28:00 62.0877 -34.1245 271° West  Level FlightAware Approximate
Mon 07:29:00 62.0891 -34.3839 271° West  Level FlightAware Approximate
Mon 07:30:00 62.0900 -34.6433 271° West  Level FlightAware Approximate
Mon 07:31:00 62.0904 -34.9027 270° West  Level FlightAware Approximate
Mon 07:32:00 62.0904 -35.1621 270° West  Level FlightAware Approximate
Mon 07:33:00 62.0898 -35.4215 270° West  Level FlightAware Approximate
Mon 07:34:00 62.0888 -35.6809 270° West  Level FlightAware Approximate
Mon 07:35:00 62.0873 -35.9403 269° West  Level FlightAware Approximate
Mon 07:36:00 62.0853 -36.1997 269° West  Level FlightAware Approximate
Mon 07:36:43 62.0833 -36.2167 268° West 450 518 43,000  Level Gander Center
Mon 07:37:00 62.0828 -36.4590 269° West  Level FlightAware Approximate
Mon 07:37:43 62.0833 -36.4833 270° West 450 518 43,000  Level Gander Center
Mon 07:38:00 62.0798 -36.7183 269° West  Level FlightAware Approximate
Mon 07:38:43 62.0833 -36.7500 270° West 450 518 43,000  Level Gander Center
Mon 07:39:00 62.0763 -36.9775 268° West  Level FlightAware Approximate
Mon 07:39:43 62.0833 -37.0000 270° West 450 518 43,000  Level Gander Center
Mon 07:40:00 62.0724 -37.2366 268° West  Level FlightAware Approximate
Mon 07:40:43 62.0667 -37.2667 263° West 450 518 43,000  Level Gander Center
Mon 07:41:00 62.0680 -37.4957 268° West  Level FlightAware Approximate
Mon 07:41:43 62.0667 -37.5333 270° West 450 518 43,000  Level Gander Center
Mon 07:42:00 62.0630 -37.7547 268° West  Level FlightAware Approximate
Mon 07:42:43 62.0667 -37.8000 270° West 460 529 43,000  Level Gander Center
Mon 07:43:43 62.0500 -38.0667 263° West 450 518 43,000  Level Gander Center
Mon 07:44:43 62.0500 -38.3333 270° West 450 518 43,000  Level Gander Center
Mon 07:45:43 62.0333 -38.6000 263° West 450 518 43,000  Level Gander Center
Mon 07:46:43 62.0500 -38.8500 278° West 450 518 43,000  Level Gander Center
Mon 07:47:43 62.0333 -39.1167 263° West 450 518 43,000  Level Gander Center
Mon 07:48:43 62.0167 -39.3833 263° West 460 529 43,000  Level Gander Center
Mon 07:49:43 62.0167 -39.6500 270° West 460 529 43,000  Level Gander Center
Mon 07:50:43 62.0000 -39.9167 263° West 460 529 43,000  Level Gander Center
Mon 07:51:43 61.9833 -40.1833 263° West 450 518 43,000  Level Gander Center
Mon 07:52:43 61.9667 -40.4167 261° West 450 518 43,000  Level Gander Center
Mon 07:53:43 61.9500 -40.6833 263° West 450 518 43,000  Level Gander Center
Mon 07:54:43 61.9333 -40.9500 263° West 450 518 43,000  Level Gander Center
Mon 07:55:43 61.9167 -41.2167 263° West 450 518 43,000  Level Gander Center
Mon 07:56:43 61.9000 -41.4833 263° West 450 518 43,000  Level Gander Center
Mon 07:57:43 61.8667 -41.7167 253° West 450 518 43,000  Level Gander Center
Mon 07:58:43 61.8500 -41.9833 263° West 450 518 43,000  Level Gander Center
Mon 07:59:43 61.8333 -42.2500 263° West 450 518 43,000  Level Gander Center
Mon 08:00:43 61.8167 -42.5167 263° West 450 518 43,000  Level Gander Center
Mon 08:01:43 61.8000 -42.7833 263° West 450 518 43,000  Level Gander Center
Mon 08:02:43 61.7667 -43.0500 255° West 450 518 43,000  Level Gander Center
Mon 08:03:43 61.7500 -43.3167 263° West 450 518 43,000  Level Gander Center
Mon 08:04:43 61.7333 -43.5333 261° West 450 518 43,000  Level Gander Center
Mon 08:05:43 61.7167 -43.8000 263° West 460 529 43,000  Level Gander Center
Mon 08:06:43 61.6833 -44.0667 255° West 460 529 43,000  Level Gander Center
Mon 08:07:43 61.6667 -44.3333 263° West 460 529 43,000  Level Gander Center
Mon 08:08:43 61.6333 -44.5667 253° West 460 529 43,000  Level Gander Center
Mon 08:09:43 61.6167 -44.8167 262° West 460 529 43,000  Level Gander Center
Mon 08:10:43 61.5833 -45.0833 255° West 460 529 43,000  Level Gander Center
Mon 08:11:43 61.5667 -45.3500 263° West 460 529 43,000  Level Gander Center
Mon 08:12:43 61.5333 -45.6167 255° West 460 529 43,000  Level Gander Center
Mon 08:13:43 61.5000 -45.8833 255° West 460 529 43,000  Level Gander Center
Mon 08:14:43 61.4833 -46.1333 262° West 460 529 43,000  Level Gander Center
Mon 08:15:43 61.4500 -46.4000 255° West 460 529 43,000  Level Gander Center
Mon 08:16:43 61.4167 -46.6667 255° West 460 529 43,000  Level Gander Center
Mon 08:17:43 61.3833 -46.9167 255° West 460 529 43,000  Level Gander Center
Mon 08:18:43 61.3667 -47.1833 263° West 460 529 43,000  Level Gander Center
Mon 08:19:43 61.3167 -47.4333 247° West 460 529 43,000  Level Gander Center
Mon 08:20:43 61.3000 -47.7000 263° West 460 529 43,000  Level Gander Center
Mon 08:21:43 61.2667 -47.9500 255° West 460 529 43,000  Level Gander Center
Mon 08:22:43 61.2333 -48.2167 256° West 460 529 43,000  Level Gander Center
Mon 08:23:43 61.2000 -48.4333 252° West 460 529 43,000  Level Gander Center
Mon 08:24:43 61.1667 -48.7333 257° West 460 529 43,000  Level Gander Center
Mon 08:25:43 61.1500 -48.9833 262° West 460 529 43,000  Level Gander Center
Mon 08:26:43 61.1000 -49.2500 249° West 460 529 43,000  Level Gander Center
Mon 08:27:43 61.0667 -49.5000 255° West 470 541 43,000  Level Gander Center
Mon 08:28:43 61.0333 -49.7500 255° West 470 541 43,000  Level Gander Center
Mon 08:29:43 61.0000 -50.0000 255° West 470 541 43,000  Level Gander Center
Mon 08:30:43 60.9667 -50.2667 256° West 470 541 43,000  Level Gander Center
Mon 08:31:43 60.9167 -50.5167 248° West 470 541 43,000  Level Gander Center
Mon 08:32:43 60.8667 -50.7667 248° West 470 541 43,000  Level Gander Center
Mon 08:33:43 60.8333 -51.0167 255° West 470 541 43,000  Level Gander Center
Mon 08:34:43 60.8000 -51.2833 256° West 470 541 43,000  Level Gander Center
Mon 08:35:43 60.7667 -51.5333 255° West 470 541 43,000  Level Gander Center
Mon 08:36:43 60.7167 -51.7833 248° West 470 541 43,000  Level Gander Center
Mon 08:37:43 60.6833 -52.0333 255° West 470 541 43,000  Level Gander Center
Mon 08:38:43 60.6333 -52.2833 248° West 470 541 43,000  Level Gander Center
Mon 08:39:43 60.6000 -52.5333 255° West 470 541 43,000  Level Gander Center
Mon 08:40:43 60.5333 -52.7833 242° Southwest 470 541 43,000  Level Gander Center
Mon 08:41:43 60.5000 -53.0333 255° West 470 541 43,000  Level Gander Center
Mon 08:42:43 60.4500 -53.2833 248° West 470 541 43,000  Level Gander Center
Mon 08:43:43 60.4000 -53.5333 248° West 470 541 43,000  Level Gander Center
Mon 08:44:43 60.3667 -53.7667 254° West 470 541 43,000  Level Gander Center
Mon 08:45:43 60.3167 -54.0167 248° West 470 541 43,000  Level Gander Center
Mon 08:46:43 60.2667 -54.2667 248° West 470 541 43,000  Level Gander Center
Mon 08:47:43 60.2167 -54.5167 248° West 470 541 43,000  Level Gander Center
Mon 08:48:43 60.1833 -54.7500 254° West 470 541 43,000  Level Gander Center
Mon 08:49:43 60.1167 -55.0000 242° Southwest 470 541 43,000  Level Gander Center
Mon 08:50:43 60.0833 -55.2333 254° West 470 541 43,000  Level Gander Center
Mon 08:51:43 60.0333 -55.4833 248° West 470 541 43,000  Level Gander Center
Mon 08:52:43 59.9667 -55.7333 242° Southwest 470 541 43,000  Level Gander Center
Mon 08:53:43 59.9333 -55.9333 252° West 480 552 43,000  Level Gander Center
Mon 08:54:43 59.8667 -56.1833 242° Southwest 470 541 43,000  Level Gander Center
Mon 08:55:43 59.8333 -56.4167 254° West 470 541 43,000  Level Gander Center
Mon 08:56:43 59.7667 -56.6500 241° Southwest 470 541 43,000  Level Gander Center
Mon 08:57:43 59.7333 -56.8833 254° West 470 541 43,000  Level Gander Center
Mon 08:58:43 59.6667 -57.1333 242° Southwest 470 541 43,000  Level Gander Center
Mon 08:59:43 59.6000 -57.3333 237° Southwest 460 529 43,000  Level Gander Center
Mon 09:00:43 59.5000 -57.4833 217° Southwest 460 529 43,000  Level Gander Center
Mon 09:01:43 59.3833 -57.6167 210° Southwest 460 529 43,000  Level Gander Center
Mon 09:02:43 59.2667 -57.7333 207° Southwest 460 529 43,000  Level Gander Center
Mon 09:03:43 59.1667 -57.8667 214° Southwest 460 529 43,000  Level Gander Center
Mon 09:04:43 59.0500 -58.0167 213° Southwest 470 541 43,000  Level Gander Center
Mon 09:05:43 58.9500 -58.1167 207° Southwest 460 529 43,000  Level Gander Center
Mon 09:06:43 58.8333 -58.2500 211° Southwest 470 541 43,000  Level Gander Center
Mon 09:07:43 58.7167 -58.4000 214° Southwest 470 541 43,000  Level Gander Center
Mon 09:08:43 58.6000 -58.5000 204° Southwest 470 541 43,000  Level Gander Center
Mon 09:09:43 58.5000 -58.6333 215° Southwest 460 529 43,000  Level Gander Center
Mon 09:10:45 58.3667 -58.7167 198° South 470 541 43,000  Level Montreal Center
Mon 09:11:45 58.2667 -58.8333 212° Southwest 460 529 43,000  Level Montreal Center
Mon 09:12:45 58.1500 -58.9500 208° Southwest 460 529 43,000  Level Montreal Center
Mon 09:13:45 58.0333 -59.0667 208° Southwest 460 529 43,000  Level Montreal Center
Mon 09:14:45 57.9333 -59.1833 212° Southwest 450 518 43,000  Level Montreal Center
Mon 09:15:45 57.8167 -59.3000 208° Southwest 460 529 43,000  Level Montreal Center
Mon 09:16:45 57.7000 -59.4167 208° Southwest 460 529 43,000  Level Montreal Center
Mon 09:17:45 57.6000 -59.5333 212° Southwest 460 529 43,000  Level Montreal Center
Mon 09:18:45 57.4833 -59.6333 205° Southwest 460 529 43,000  Level Montreal Center
Mon 09:19:45 57.3667 -59.7500 208° Southwest 460 529 43,000  Level Montreal Center
Mon 09:20:45 57.2667 -59.9000 219° Southwest 450 518 43,000  Level Montreal Center
Mon 09:21:45 57.1500 -60.0000 205° Southwest 450 518 43,000  Level Montreal Center
Mon 09:22:45 57.0500 -60.0833 204° Southwest 460 529 43,000  Level Montreal Center
Mon 09:23:45 56.9500 -60.2167 216° Southwest 450 518 43,000  Level Montreal Center
Mon 09:24:45 56.8167 -60.3333 206° Southwest 450 518 43,000  Level Montreal Center
Mon 09:25:45 56.7167 -60.4500 213° Southwest 450 518 43,000  Level Montreal Center
Mon 09:26:45 56.6000 -60.5500 205° Southwest 450 518 43,000  Level Montreal Center
Mon 09:27:45 56.4833 -60.6667 209° Southwest 450 518 43,000  Level Montreal Center
Mon 09:28:45 56.3833 -60.7667 209° Southwest 450 518 43,000  Level Montreal Center
Mon 09:29:45 56.2667 -60.8667 205° Southwest 460 529 43,000  Level Montreal Center
Mon 09:30:45 56.1500 -60.9833 209° Southwest 460 529 43,000  Level Montreal Center
Mon 09:31:45 56.0333 -61.0833 206° Southwest 460 529 43,000  Level Montreal Center
Mon 09:33:03 55.9000 -61.2833 220° Southwest 460 529 43,000  Level Gander Center
Mon 09:34:03 55.7667 -61.4000 206° Southwest 460 529 43,000  Level Gander Center
Mon 09:35:03 55.6667 -61.4833 205° Southwest 460 529 43,000  Level Gander Center
Mon 09:36:03 55.5500 -61.5833 206° Southwest 460 529 43,000  Level Gander Center
Mon 09:37:03 55.4333 -61.7000 210° Southwest 460 529 43,000  Level Gander Center
Mon 09:38:03 55.3333 -61.8167 214° Southwest 460 529 43,000  Level Gander Center
Mon 09:39:03 55.2167 -61.9000 202° Southwest 460 529 43,000  Level Gander Center
Mon 09:40:03 55.1000 -62.0167 210° Southwest 460 529 43,000  Level Gander Center
Mon 09:41:03 54.9833 -62.1000 202° Southwest 460 529 43,000  Level Gander Center
Mon 09:42:03 54.8833 -62.2167 214° Southwest 460 529 43,000  Level Gander Center
Mon 09:43:03 54.7667 -62.3000 202° Southwest 450 518 43,000  Level Gander Center
Mon 09:44:03 54.6500 -62.4000 206° Southwest 450 518 43,000  Level Gander Center
Mon 09:45:03 54.5500 -62.5000 210° Southwest 450 518 43,000  Level Gander Center
Mon 09:46:03 54.4333 -62.6000 207° Southwest 460 529 43,000  Level Gander Center
Mon 09:47:03 54.3000 -62.6833 200° South 460 529 43,000  Level Gander Center
Mon 09:48:03 54.1833 -62.8000 210° Southwest 460 529 43,000  Level Gander Center
Mon 09:49:03 54.0833 -62.9000 210° Southwest 450 518 43,000  Level Gander Center
Mon 09:50:03 53.9667 -62.9833 203° Southwest 450 518 43,000  Level Gander Center
Mon 09:51:03 53.8500 -63.1000 211° Southwest 450 518 43,000  Level Gander Center
Mon 09:52:03 53.7500 -63.1833 206° Southwest 450 518 43,000  Level Gander Center
Mon 09:53:03 53.6333 -63.2833 207° Southwest 460 529 43,000  Level Gander Center
Mon 09:54:03 53.5333 -63.3667 206° Southwest 460 529 43,000  Level Gander Center
Mon 09:55:03 53.4167 -63.4667 207° Southwest 460 529 43,000  Level Gander Center
Mon 09:56:03 53.2833 -63.5500 200° South 450 518 43,000  Level Gander Center
Mon 09:57:45 53.1000 -63.6667 201° Southwest 440 506 43,000  Level Montreal Center
Mon 09:58:45 53.0000 -63.7500 207° Southwest 440 506 43,000  Level Montreal Center
Mon 09:59:45 52.8833 -63.8333 203° Southwest 440 506 43,000  Level Montreal Center
Mon 10:00:45 52.7667 -63.9333 207° Southwest 450 518 43,000  Level Montreal Center
Mon 10:01:45 52.6500 -64.0167 203° Southwest 440 506 43,000  Level Montreal Center
Mon 10:02:45 52.5333 -64.1000 203° Southwest 440 506 43,000  Level Montreal Center
Mon 10:03:45 52.4333 -64.2000 211° Southwest 450 518 43,000  Level Montreal Center
Mon 10:04:45 52.3167 -64.2833 204° Southwest 450 518 43,000  Level Montreal Center
Mon 10:05:45 52.2000 -64.3667 204° Southwest 450 518 43,000  Level Montreal Center
Mon 10:06:45 52.0833 -64.4500 204° Southwest 450 518 43,000  Level Montreal Center
Mon 10:07:45 51.9667 -64.5333 204° Southwest 450 518 43,000  Level Montreal Center
Mon 10:08:45 51.8667 -64.6167 207° Southwest 440 506 43,000  Level Montreal Center
Mon 10:09:45 51.7500 -64.7000 204° Southwest 440 506 43,000  Level Montreal Center
Mon 10:10:45 51.6333 -64.7833 204° Southwest 440 506 43,000  Level Montreal Center
Mon 10:11:45 51.5333 -64.8667 207° Southwest 440 506 43,000  Level Montreal Center
Mon 10:12:45 51.4167 -64.9500 204° Southwest 450 518 43,000  Level Montreal Center
Mon 10:13:45 51.2833 -65.0333 201° Southwest 450 518 43,000  Level Montreal Center
Mon 10:14:45 51.1833 -65.1167 208° Southwest 440 506 43,000  Level Montreal Center
Mon 10:15:45 51.0833 -65.2167 212° Southwest 440 506 43,000  Level Montreal Center
Mon 10:16:45 50.9667 -65.3000 204° Southwest 450 518 43,000  Level Montreal Center
Mon 10:17:45 50.8500 -65.3833 204° Southwest 440 506 43,000  Level Montreal Center
Mon 10:18:45 50.7333 -65.4667 204° Southwest 440 506 43,000  Level Montreal Center
Mon 10:19:45 50.6167 -65.5500 204° Southwest 440 506 43,000  Level Montreal Center
Mon 10:20:45 50.5167 -65.6167 203° Southwest 440 506 43,000  Level Montreal Center
Mon 10:21:45 50.4000 -65.7000 204° Southwest 440 506 43,000  Level Montreal Center
Mon 10:22:45 50.2833 -65.7833 205° Southwest 450 518 43,000  Level Montreal Center
Mon 10:23:45 50.1833 -65.8500 203° Southwest 440 506 43,000  Level Montreal Center
Mon 10:24:45 50.0667 -65.9333 205° Southwest 440 506 43,000  Level Montreal Center
Mon 10:25:45 49.9500 -66.0167 205° Southwest 440 506 43,000  Level Montreal Center
Mon 10:26:45 49.8500 -66.0833 203° Southwest 430 495 43,000  Level Montreal Center
Mon 10:27:45 49.7333 -66.1667 205° Southwest 430 495 43,000  Level Montreal Center
Mon 10:28:45 49.6167 -66.2333 200° South 430 495 43,000  Level Montreal Center
Mon 10:29:45 49.5333 -66.3167 213° Southwest 430 495 43,000  Level Montreal Center
Mon 10:30:45 49.4000 -66.3833 198° South 420 483 43,000  Level Montreal Center
Mon 10:31:45 49.3000 -66.4667 209° Southwest 430 495 43,000  Level Montreal Center
Mon 10:32:45 49.1833 -66.5333 200° South 430 495 43,000  Level Montreal Center
Mon 10:33:45 49.0833 -66.6000 204° Southwest 430 495 43,000  Level Montreal Center
Mon 10:34:45 48.9667 -66.6833 205° Southwest 430 495 43,000  Level Montreal Center
Mon 10:35:45 48.8500 -66.7500 201° Southwest 430 495 43,000  Level Montreal Center
Mon 10:36:45 48.7333 -66.8333 205° Southwest 420 483 43,000  Level Montreal Center
Mon 10:42:02 48.1805 -67.2249 203° Southwest 417 480 43,000  Level FlightAware ADS-B
Mon 10:42:36 48.1177 -67.2648 203° Southwest 413 475 43,000  Level FlightAware ADS-B
Mon 10:43:13 48.0493 -67.3083 203° Southwest 413 475 43,000  Level FlightAware ADS-B
Mon 10:44:05 47.9586 -67.3656 203° Southwest 413 475 43,000  Level FlightAware ADS-B
Mon 10:45:38 47.7927 -67.4699 203° Southwest 417 480 43,000  Level FlightAware ADS-B
Mon 10:46:08 47.7402 -67.5027 203° Southwest 416 479 43,000  Level FlightAware ADS-B
Mon 10:46:42 47.6850 -67.5371 203° Southwest 412 474 43,000  Level FlightAware ADS-B
Mon 10:47:45 47.5690 -67.6093 203° Southwest 415 478 43,000  Level FlightAware ADS-B
Mon 10:48:25 47.5006 -67.6517 203° Southwest 419 482 43,000  Level FlightAware ADS-B
Mon 10:48:58 47.4549 -67.6799 203° Southwest 423 487 43,000  Level FlightAware ADS-B
Mon 10:49:45 47.3557 -67.7410 203° Southwest 423 487 43,000  Level FlightAware ADS-B
Mon 10:50:17 47.3015 -67.7743 203° Southwest 430 495 43,000  Level FlightAware ADS-B
Mon 10:50:48 47.2533 -67.8038 203° Southwest 433 498 43,000  Level FlightAware ADS-B
Mon 10:51:19 47.1853 -67.8455 202° Southwest 427 491 43,000  Level FlightAware ADS-B
Mon 10:51:55 47.1235 -67.8778 198° South 423 487 43,000  Level FlightAware ADS-B
Mon 10:52:35 47.0435 -67.9151 198° South 424 488 43,000  Level FlightAware ADS-B
Mon 10:53:05 46.9858 -67.9418 198° South 422 486 43,000  Level FlightAware ADS-B
Mon 10:53:43 46.9154 -67.9743 198° South 421 484 43,000  Level FlightAware ADS-B
Mon 10:54:17 46.8530 -68.0030 198° South 413 475 43,000  Level FlightAware ADS-B
Mon 10:54:51 46.8030 -68.0260 197° South 414 476 43,000  Level FlightAware ADS-B
Mon 10:55:38 46.7078 -68.0695 197° South 411 473 43,000  Level FlightAware ADS-B
Mon 10:56:10 46.6625 -68.0902 197° South 412 474 43,000  Level FlightAware ADS-B
Mon 10:56:56 46.5656 -68.1343 197° South 412 474 43,000  Level FlightAware ADS-B
Mon 10:57:37 46.4897 -68.1688 197° South 417 480 43,000  Level FlightAware ADS-B
Mon 10:58:16 46.4173 -68.2015 197° South 415 478 43,000  Level FlightAware ADS-B
Mon 10:58:50 46.3559 -68.2291 197° South 415 478 43,000  Level FlightAware ADS-B
Mon 10:59:20 46.3082 -68.2506 197° South 418 481 43,000  Level FlightAware ADS-B
Mon 10:59:57 46.2367 -68.2828 197° South 422 486 43,000  Level FlightAware ADS-B
Mon 11:00:28 46.1808 -68.3078 197° South 422 486 43,000  Level FlightAware ADS-B
Mon 11:01:00 46.1215 -68.3344 197° South 426 490 43,000  Level FlightAware ADS-B
Mon 11:01:34 46.0501 -68.3662 197° South 427 491 43,000  Level FlightAware ADS-B
Mon 11:02:06 45.9912 -68.3924 197° South 434 499 43,000  Level FlightAware ADS-B
Mon 11:02:38 45.9278 -68.4204 197° South 435 501 43,000  Level FlightAware ADS-B
Mon 11:03:08 45.8722 -68.4450 197° South 433 498 43,000  Level FlightAware ADS-B
Mon 11:03:40 45.8136 -68.4709 197° South 434 499 43,000  Level FlightAware ADS-B
Mon 11:04:21 45.7336 -68.5062 197° South 429 494 43,000  Level FlightAware ADS-B
Mon 11:04:51 45.6995 -68.5212 197° South 429 494 43,000  Level FlightAware ADS-B (YSBK / BWU)
Mon 11:05:24 45.6123 -68.5594 197° South 429 494 43,000  Level FlightAware ADS-B
Mon 11:06:00 45.5475 -68.5877 197° South 424 488 43,000  Level FlightAware ADS-B
Mon 11:06:30 45.4968 -68.6099 197° South 423 487 43,000  Level FlightAware ADS-B
Mon 11:07:12 45.4154 -68.6455 197° South 426 490 43,000  Level FlightAware ADS-B (YSBK / BWU)
Mon 11:07:53 45.3371 -68.6793 197° South 427 491 43,000  Level FlightAware ADS-B
Mon 11:08:26 45.2845 -68.7022 197° South 422 486 43,000  Level FlightAware ADS-B
Mon 11:08:56 45.2173 -68.7312 197° South 424 488 43,000  Level FlightAware ADS-B
Mon 11:09:26 45.1630 -68.7547 197° South 428 493 43,000  Level FlightAware ADS-B
Mon 11:09:57 45.1015 -68.7810 197° South 425 489 43,000  Level FlightAware ADS-B
Mon 11:10:29 45.0405 -68.8072 197° South 427 491 43,000  Level FlightAware ADS-B
Mon 11:11:01 44.9782 -68.8339 197° South 425 489 43,000  Level FlightAware ADS-B
Mon 11:11:33 44.9310 -68.8541 197° South 425 489 43,000  Level FlightAware ADS-B (YSBK / BWU)
Mon 11:12:03 44.8633 -68.8830 197° South 426 490 43,000  Level FlightAware ADS-B (YSBK / BWU)
Mon 11:12:33 44.8212 -68.9009 197° South 425 489 43,000  Level FlightAware ADS-B (YSBK / BWU)
Mon 11:13:03 44.7636 -68.9254 197° South 426 490 43,000  Level FlightAware ADS-B (YSBK / BWU)
Mon 11:13:33 44.6998 -68.9524 197° South 421 484 43,000  Level FlightAware ADS-B (YSBK / BWU)
Mon 11:14:04 44.6355 -68.9797 197° South 426 490 43,000  Level FlightAware ADS-B (YSBK / BWU)
Mon 11:14:43 44.5690 -69.0077 197° South 430 495 43,000  Level FlightAware ADS-B (YSBK / BWU)
Mon 11:15:13 44.5127 -69.0315 197° South 431 496 43,000  Level FlightAware ADS-B (YSBK / BWU)
Mon 11:15:43 44.4481 -69.0586 197° South 427 491 43,000  Level FlightAware ADS-B (YSBK / BWU)
Mon 11:16:13 44.3996 -69.0788 197° South 421 484 43,000  Level FlightAware ADS-B
Mon 11:16:43 44.3370 -69.1051 197° South 422 486 43,000  Level FlightAware ADS-B
Mon 11:17:14 44.2846 -69.1272 197° South 425 489 43,000  Level FlightAware ADS-B (YSBK / BWU)
Mon 11:17:44 44.2269 -69.1511 197° South 425 489 43,000  Level FlightAware ADS-B (YSBK / BWU)
Mon 11:18:16 44.1635 -69.1774 197° South 423 487 43,000  Level FlightAware ADS-B
Mon 11:18:47 44.1073 -69.2008 197° South 423 487 43,000  Level FlightAware ADS-B
Mon 11:19:17 44.0481 -69.2253 197° South 422 486 43,000  Level FlightAware ADS-B
Mon 11:19:52 44.0115 -69.2404 197° South 423 487 43,000  Level FlightAware ADS-B (YSBK / BWU)
Mon 11:20:22 43.9333 -69.2727 197° South 421 484 43,000  Level FlightAware ADS-B (YSBK / BWU)
Mon 11:20:59 43.8623 -69.3019 197° South 421 484 43,000 -269 Level FlightAware ADS-B
Mon 11:21:29 43.7999 -69.3276 197° South 422 486 42,700 -818 Descending FlightAware ADS-B
Mon 11:22:05 43.7913 -69.3311 197° South 427 491 42,100 -1,217 Descending FlightAware ADS-B (EPKK / KRK)
Mon 11:22:38 43.7775 -69.3368 197° South 430 495 41,300 -1,618 Descending FlightAware ADS-B (YSBK / BWU)
Mon 11:23:34 43.5845 -69.4155 197° South 430 495 39,700 -1,655 Descending FlightAware ADS-B
Mon 11:24:05 43.5139 -69.4442 197° South 416 479 38,900 -1,467 Descending FlightAware ADS-B (EPKK / KRK)
Mon 11:24:19 43.4779 -69.4589 197° South 402 463 38,600 -1,333 Descending FlightAware ADS-B
Mon 11:24:50 43.4240 -69.4807 196° South 383 441 37,900 -984 Descending FlightAware ADS-B
Mon 11:25:20 43.3768 -69.4999 197° South 373 429 37,600 -689 Descending FlightAware ADS-B (EPKK / KRK)
Mon 11:25:51 43.3221 -69.5222 197° South 368 423 37,200 -484 Descending FlightAware ADS-B
Mon 11:26:22 43.2716 -69.5425 196° South 373 429 37,100 -197 Descending FlightAware ADS-B (EPKK / KRK)
Mon 11:26:52 43.2210 -69.5628 197° South 366 421 37,000 -120 Descending FlightAware ADS-B
Mon 11:27:12 43.2037 -69.5698 196° South 375 432 37,000  Level FlightAware ADS-B
Mon 11:27:42 43.1375 -69.5963 197° South 371 427 37,000  Level FlightAware ADS-B
Mon 11:28:11 43.1080 -69.6081 196° South 377 434 37,000  Level FlightAware ADS-B
Mon 11:28:18 43.0782 -69.6200 196° South 377 434 37,000  Level FlightAware ADS-B
Mon 11:28:51 43.0253 -69.6412 196° South 378 435 37,000  Level FlightAware ADS-B
Mon 11:29:30 42.9637 -69.6657 196° South 380 437 37,000  Level FlightAware ADS-B (EPKK / KRK)
Mon 11:30:00 42.9058 -69.6888 196° South 379 436 37,000  Level FlightAware ADS-B
Mon 11:30:03 42.9014 -69.6906 197° South 371 427 37,000  Level FlightAware ADS-B
Mon 11:30:12 42.8855 -69.6968 197° South 373 429 37,000 -400 Level FlightAware ADS-B
Mon 11:30:18 42.8761 -69.7006 197° South 373 429 36,900 -1,125 Descending FlightAware ADS-B
Mon 11:30:28 42.8585 -69.7076 197° South 374 430 36,700 -1,814 Descending FlightAware ADS-B
Mon 11:31:01 42.8023 -69.7299 196° South 385 443 35,600 -2,123 Descending FlightAware ADS-B
Mon 11:31:33 42.7478 -69.7514 196° South 392 451 34,400 -2,377 Descending FlightAware ADS-B (EPKK / KRK)
Mon 11:31:54 42.7104 -69.7663 196° South 397 457 33,500 -2,353 Descending FlightAware ADS-B (EPKK / KRK)
Mon 11:32:24 42.6661 -69.7837 196° South 394 453 32,400 -2,361 Descending FlightAware ADS-B (EPKK / KRK)
Mon 11:32:55 42.6084 -69.8064 196° South 387 445 31,100 -2,066 Descending FlightAware ADS-B (EPKK / KRK)
Mon 11:33:25 42.5547 -69.8275 196° South 366 421 30,300 -1,770 Descending FlightAware ADS-B (EPKK / KRK)
Mon 11:33:56 42.5070 -69.8463 196° South 349 402 29,300 -2,164 Descending FlightAware ADS-B (EPKK / KRK)
Mon 11:34:26 42.4582 -69.8655 196° South 342 394 28,100 -2,262 Descending FlightAware ADS-B (EPKK / KRK)
Mon 11:34:57 42.4153 -69.8824 196° South 332 382 27,000 -2,361 Descending FlightAware ADS-B (EPKK / KRK)
Mon 11:35:27 42.3703 -69.8999 196° South 338 389 25,700 -2,492 Descending FlightAware ADS-B (EPKK / KRK)
Mon 11:36:02 42.3154 -69.9215 196° South 363 418 24,300 -2,400 Descending FlightAware ADS-B (EPKK / KRK)
Mon 11:36:32 42.2667 -69.9402 196° South 355 409 23,100 -2,344 Descending FlightAware ADS-B (EPKK / KRK)
Mon 11:37:06 42.2122 -69.9614 197° South 338 389 21,800 -2,063 Descending FlightAware ADS-B
Mon 11:37:36 42.1676 -69.9788 196° South 333 383 20,900 -1,742 Descending FlightAware ADS-B
Mon 11:38:08 42.1268 -69.9945 196° South 330 380 20,000 -1,800 Descending FlightAware ADS-B (EPKK / KRK)
Mon 11:38:46 42.0634 -70.0192 196° South 322 371 18,800 -1,831 Descending FlightAware ADS-B
Mon 11:39:07 42.0368 -70.0295 196° South 319 367 18,200 -1,846 Descending FlightAware ADS-B (EPKK / KRK)
Mon 11:39:25 42.0106 -70.0441 209° Southwest 310 357 17,600 -1,680 Descending FlightAware ADS-B (ESTA / AGH)
Mon 11:39:32 42.0033 -70.0497 211° Southwest 313 360 17,500 -1,756 Descending FlightAware ADS-B (EPKK / KRK)
Mon 11:40:06 41.9597 -70.0855 213° Southwest 306 352 16,400 -1,787 Descending FlightAware ADS-B
Mon 11:40:19 41.9440 -70.0985 213° Southwest 303 349 16,100 -1,149 Descending FlightAware ADS-B
Mon 11:40:53 41.9025 -70.1332 212° Southwest 309 356 15,500 -1,091 Descending FlightAware ADS-B
Mon 11:41:25 41.8638 -70.1655 212° Southwest 308 354 14,900 -1,167 Descending FlightAware ADS-B (ESTA / AGH)
Mon 11:42:05 41.8155 -70.2058 213° Southwest 304 350 14,100 -1,138 Descending FlightAware ADS-B
Mon 11:42:23 41.7935 -70.2240 213° Southwest 303 349 13,800 -1,200 Descending FlightAware ADS-B
Mon 11:42:55 41.7545 -70.2566 213° Southwest 310 357 13,100 -1,258 Descending FlightAware ADS-B
Mon 11:43:25 41.7185 -70.2866 212° Southwest 304 350 12,500 -1,200 Descending FlightAware ADS-B (ESTA / AGH)
Mon 11:43:55 41.6823 -70.3164 211° Southwest 282 325 11,900 -1,233 Descending FlightAware ADS-B
Mon 11:44:38 41.6436 -70.3483 212° Southwest 258 297 11,000 -1,241 Descending FlightAware ADS-B (ESTA / AGH)
Mon 11:45:51 41.5758 -70.4239 261° West 231 266 9,500 -1,151 Descending FlightAware ADS-B (ESTA / AGH)
Mon 11:47:04 41.5897 -70.5312 282° West 254 292 8,200 -986 Descending FlightAware ADS-B (ESTA / AGH)
Mon 11:48:17 41.6067 -70.6415 282° West 253 291 7,100 -838 Descending FlightAware ADS-B (ESTA / AGH)
Mon 11:49:20 41.6208 -70.7396 272° West 256 295 6,300 -629 Descending FlightAware ADS-B (ESTA / AGH)
Mon 11:50:02 41.6078 -70.8031 272° West 273 314 6,000 -333 Descending Boston Center
Mon 11:50:14 41.6094 -70.8044 328° Northwest 262 302 6,000  Level Boston Center
Mon 11:51:15 41.5819 -70.9133 251° West 264 304 6,000  Level Boston Center
Mon 11:52:03 41.5628 -70.9853 250° West 263 303 6,000  Level Boston Center
Mon 11:52:16 41.5592 -71.0056 257° West 263 303 6,000 -492 Level Boston Center
Mon 11:53:04 41.5425 -71.0758 252° West 218 251 5,500 -787 Descending Boston Center
Mon 11:53:17 41.5406 -71.0878 258° West 232 267 5,200 -1,400 Descending Boston Center
Mon 11:54:04 41.5222 -71.1547 250° West 215 247 4,100 -1,279 Descending Boston Center
Mon 11:54:18 41.5228 -71.1647 274° West 219 252 3,900 -1,164 Descending Boston Center
Mon 11:55:11 41.5411 -71.2306 290° West 200 230 2,800 -1,180 Descending Boston Center
Mon 11:55:19 41.5483 -71.2367 328° Northwest 199 229 2,700 -764 Descending Boston Center
Mon 11:56:06 41.5794 -71.2761 317° Northwest 193 222 2,100 -700 Descending Boston Center
Mon 11:56:19 41.5897 -71.2858 325° Northwest 196 226 2,000 -111 Descending Boston Center
Mon 11:57:00 41.6139 -71.3086 325° Northwest 154 177 2,000  Level Boston Center
Mon 11:57:20 41.6247 -71.3192 324° Northwest 158 182 2,000  Level Boston Center
Mon 11:58:01 41.6458 -71.3431 320° Northwest 151 174 2,000 -197 Level Boston Center
Mon 11:58:21 41.6567 -71.3536 324° Northwest 149 171 1,800 -689 Descending Boston Center
Mon 11:59:02 41.6742 -71.3736 320° Northwest 121 139 1,300 -689 Descending Boston Center
Mon 11:59:22 41.6831 -71.3808 329° Northwest 124 143 1,100 -700 Descending Boston Center
Mon 12:00:02 41.6989 -71.4000 318° Northwest 112 129 600 -689 Descending Boston Center
Mon 12:00:23 41.7086 -71.4089 326° Northwest 112 129 400 10,537 Descending Boston Center
Mon 12:01:24 41.7281 -71.4283 323° Northwest 104 120 15,000 14,361 Climbing Boston Center

Login

Don't have an account? Register now (free) for customized features, flight alerts, and more!